»·PEaware :: N364CM KCMA-KSNA

N364CM :: KCMA-KSNA

FLIGHT INFORMATION

Flight Status: Arrived
Operator: Privately registered:
United States
More flights under this callsign
Pilot: Brian S. (32023)
Aircraft: CESSNA 172 SKYHAWK
(C172)
More flights by this aircraft type
Origin: KCMA Camarillo
United States
Destination: KSNA John Wayne-Orange Co
United States
More flights between these airports :: More routes between these airports
Route: VPLWT LAX VPLVT VPLHP
File this flight plan on PilotEdge
Remarks:
Altitude:
(Current/Filed)
5,500ft
Speed:
(Current/Filed)
125kts
Departed: 20-Jan-21 05:34 PM
Arrived: 20-Jan-21 06:18 PM
Distance/Time
Traveled:
69nm/0:43
Distance/Time
To Go:
Arrived

Flight Plot

Page will automatically refresh every two minutes.

Flight plan parsing failed; only flown route is shown


Map Options




Map Legend


Flown Route
Filed Route
Departure Airport
Arrival Airport
Navaid (VOR, NDB)
Fix

Horizontal Profiles

Position Reports

Time Latitude Longitude Heading Altitude Ground
Speed
20-Jan-21 17:17 34.210442 -119.080884 89 80ft 0kts
20-Jan-21 17:18 34.210442 -119.080884 89 80ft 0kts
20-Jan-21 17:19 34.210442 -119.080884 89 80ft 0kts
20-Jan-21 17:20 34.210442 -119.080884 89 80ft 0kts
20-Jan-21 17:21 34.210442 -119.080884 89 80ft 0kts
20-Jan-21 17:22 34.210442 -119.080884 89 80ft 0kts
20-Jan-21 17:23 34.210442 -119.080884 89 80ft 0kts
20-Jan-21 17:24 34.210442 -119.080884 89 80ft 0kts
20-Jan-21 17:25 34.210442 -119.080884 89 80ft 0kts
20-Jan-21 17:26 34.210442 -119.080884 89 80ft 0kts
20-Jan-21 17:27 34.210472 -119.080714 58 80ft 5kts
20-Jan-21 17:28 34.210927 -119.084435 271 78ft 18kts
20-Jan-21 17:29 34.210992 -119.090946 270 71ft 19kts
20-Jan-21 17:30 34.211032 -119.097403 270 65ft 17kts
20-Jan-21 17:31 34.212055 -119.102497 301 62ft 15kts
20-Jan-21 17:32 34.213177 -119.104088 356 63ft 6kts
20-Jan-21 17:33 34.213762 -119.094172 89 235ft 76kts
20-Jan-21 17:34 34.213496 -119.070601 98 948ft 71kts
20-Jan-21 17:35 34.210522 -119.046905 98 1574ft 71kts
20-Jan-21 17:36 34.207632 -119.022889 96 2289ft 72kts
20-Jan-21 17:37 34.205292 -118.998685 96 2992ft 73kts
20-Jan-21 17:38 34.203105 -118.974129 95 3661ft 74kts
20-Jan-21 17:39 34.201068 -118.949300 95 4296ft 74kts
20-Jan-21 17:40 34.199016 -118.924287 95 4897ft 75kts
20-Jan-21 17:41 34.196938 -118.898962 95 5458ft 78kts
20-Jan-21 17:42 34.194099 -118.865189 95 5484ft 115kts
20-Jan-21 17:43 34.190631 -118.825812 97 5500ft 118kts
20-Jan-21 17:44 34.186112 -118.786034 97 5500ft 119kts
20-Jan-21 17:45 34.181642 -118.746659 97 5500ft 117kts
20-Jan-21 17:46 34.177198 -118.707464 97 5500ft 117kts
20-Jan-21 17:47 34.172746 -118.668159 97 5499ft 118kts
20-Jan-21 17:48 34.168316 -118.629002 97 5499ft 118kts
20-Jan-21 17:49 34.163888 -118.589809 97 5499ft 118kts
20-Jan-21 17:50 34.159471 -118.550453 97 5500ft 118kts
20-Jan-21 17:51 34.137190 -118.527262 160 5500ft 117kts
20-Jan-21 17:52 34.106308 -118.513862 159 5500ft 118kts
20-Jan-21 17:53 34.075650 -118.499768 158 5499ft 118kts
20-Jan-21 17:54 34.045202 -118.485399 158 5499ft 118kts
20-Jan-21 17:55 34.013758 -118.470383 157 5499ft 118kts
20-Jan-21 17:56 33.983340 -118.455781 157 5499ft 118kts
20-Jan-21 17:57 33.952862 -118.441121 157 5499ft 118kts
20-Jan-21 17:58 33.923758 -118.423722 135 5500ft 118kts
20-Jan-21 17:59 33.900330 -118.396195 132 5500ft 118kts
20-Jan-21 18:00 33.876127 -118.369413 137 5500ft 118kts
20-Jan-21 18:01 33.851552 -118.343146 141 5499ft 118kts
20-Jan-21 18:02 33.825677 -118.318978 142 5499ft 118kts
20-Jan-21 18:03 33.799525 -118.294789 140 5491ft 118kts
20-Jan-21 18:04 33.773993 -118.270015 142 5490ft 118kts
20-Jan-21 18:06 33.753852 -118.239782 117 5490ft 118kts
20-Jan-21 18:07 33.738910 -118.204607 117 5489ft 118kts
20-Jan-21 18:08 33.722292 -118.165489 117 4809ft 134kts
20-Jan-21 18:09 33.705760 -118.126555 117 4102ft 129kts
20-Jan-21 18:10 33.689464 -118.088167 117 3343ft 131kts
20-Jan-21 18:11 33.672161 -118.050967 124 2340ft 125kts
20-Jan-21 18:12 33.654210 -118.016215 89 1491ft 113kts
20-Jan-21 18:13 33.666136 -117.982780 120 1419ft 119kts
20-Jan-21 18:14 33.647910 -117.951897 119 1286ft 127kts
20-Jan-21 18:15 33.644906 -117.917964 81 1345ft 109kts
20-Jan-21 18:16 33.652153 -117.886682 50 637ft 96kts
20-Jan-21 18:17 33.670680 -117.871948 24 61ft 53kts
20-Jan-21 18:18 33.677686 -117.867897 346 60ft 8kts
20-Jan-21 18:19 33.677761 -117.869002 209 60ft 12kts
20-Jan-21 18:20 33.674320 -117.871504 239 60ft 13kts
20-Jan-21 18:21 33.674276 -117.871843 288 60ft 0kts

Navigation Log

Ident Type
Flight plan parsing failed, navigation log unavailable